createdAt,value
2019-02-23T00:07:28.431Z,3.45
2019-02-23T00:17:28.434Z,3.33
2019-02-23T00:27:28.384Z,2.96
2019-02-23T00:37:29.551Z,2.96
2019-02-23T00:47:28.656Z,2.94
2019-02-23T00:57:28.491Z,2.85
2019-02-23T01:07:28.440Z,2.81
2019-02-23T01:17:28.439Z,2.81
2019-02-23T01:27:28.604Z,2.75
2019-02-23T01:37:28.469Z,2.54
2019-02-23T01:47:28.389Z,2.42
2019-02-23T01:57:28.376Z,2.41
2019-02-23T02:07:28.410Z,2.27
2019-02-23T02:17:28.330Z,2.36
2019-02-23T02:27:28.503Z,2.20
2019-02-23T02:37:28.414Z,1.93
2019-02-23T02:47:28.498Z,1.94
2019-02-23T02:57:28.514Z,1.81
2019-02-23T03:07:28.379Z,1.56
2019-02-23T03:17:28.345Z,1.61
2019-02-23T03:27:28.398Z,1.41
2019-02-23T03:37:28.249Z,1.57
2019-02-23T03:47:28.357Z,1.64
2019-02-23T03:57:28.401Z,1.89
2019-02-23T04:07:28.417Z,1.70
2019-02-23T04:17:28.328Z,1.51
2019-02-23T04:27:28.365Z,1.03
2019-02-23T04:37:28.384Z,0.91
2019-02-23T04:47:28.418Z,0.85
2019-02-23T04:57:28.396Z,0.67
2019-02-23T05:07:28.309Z,0.62
2019-02-23T05:17:28.427Z,0.60
2019-02-23T05:27:28.357Z,0.42
2019-02-23T05:37:28.351Z,0.41
2019-02-23T05:47:28.344Z,0.47
2019-02-23T05:57:28.411Z,0.50
2019-02-23T06:07:28.557Z,0.73
2019-02-23T06:17:29.303Z,0.90
2019-02-23T06:27:28.350Z,1.11
2019-02-23T06:37:28.331Z,1.32
2019-02-23T06:47:28.403Z,1.30
2019-02-23T06:57:28.351Z,1.43
2019-02-23T07:07:28.228Z,1.37
2019-02-23T07:17:28.424Z,1.69
2019-02-23T07:27:28.322Z,2.50
2019-02-23T07:37:28.444Z,3.20
2019-02-23T07:47:28.383Z,3.70
2019-02-23T07:57:28.491Z,4.47
2019-02-23T08:07:28.400Z,5.61
2019-02-23T08:17:28.370Z,6.14
2019-02-23T08:27:28.541Z,6.28
2019-02-23T08:37:28.895Z,6.66
2019-02-23T08:47:28.348Z,6.66
2019-02-23T08:57:28.311Z,7.38
2019-02-23T09:07:28.378Z,7.58
2019-02-23T09:17:28.474Z,8.93
2019-02-23T09:27:28.450Z,9.56
2019-02-23T09:37:28.276Z,9.40
2019-02-23T09:47:28.372Z,9.54
2019-02-23T09:57:28.323Z,10.00
2019-02-23T10:07:31.852Z,10.44
2019-02-23T10:17:28.299Z,11.03
2019-02-23T10:27:28.311Z,11.32
2019-02-23T10:37:28.462Z,10.99
2019-02-23T10:47:28.435Z,11.34
2019-02-23T10:57:28.523Z,10.92
2019-02-23T11:07:29.782Z,11.21
2019-02-23T11:17:28.425Z,12.34
2019-02-23T11:27:28.495Z,12.77
2019-02-23T11:37:28.359Z,13.22
2019-02-23T11:47:28.420Z,14.05
2019-02-23T11:57:28.469Z,14.62
2019-02-23T12:07:28.364Z,14.82
2019-02-23T12:17:28.419Z,14.81
2019-02-23T12:27:28.418Z,15.62
2019-02-23T12:37:29.339Z,15.18
2019-02-23T12:47:28.443Z,15.52
2019-02-23T12:57:29.433Z,16.07
2019-02-23T13:07:28.548Z,15.37
2019-02-23T13:17:28.516Z,15.53
2019-02-23T13:27:28.478Z,15.69
2019-02-23T13:37:28.370Z,15.22
2019-02-23T13:47:28.539Z,14.68
2019-02-23T13:57:28.533Z,14.78
2019-02-23T14:07:28.436Z,14.10
2019-02-23T14:17:28.414Z,14.02
2019-02-23T14:27:28.478Z,14.55
2019-02-23T14:37:28.400Z,13.90
2019-02-23T14:47:28.397Z,14.57
2019-02-23T14:57:29.190Z,14.97
2019-02-23T15:07:28.855Z,14.46
2019-02-23T15:17:28.547Z,13.41
2019-02-23T15:27:28.450Z,13.52
2019-02-23T15:37:28.421Z,13.61
2019-02-23T15:47:28.426Z,13.48
2019-02-23T15:57:28.532Z,12.77
2019-02-23T16:07:28.411Z,13.01
2019-02-23T16:17:28.476Z,12.64
2019-02-23T16:27:28.460Z,11.89
2019-02-23T16:37:28.471Z,11.95
2019-02-23T16:47:28.482Z,11.23
2019-02-23T16:57:28.448Z,9.93
2019-02-23T17:07:28.383Z,9.27
2019-02-23T17:17:28.434Z,8.67
2019-02-23T17:27:36.206Z,8.22
2019-02-23T17:37:28.353Z,8.00
2019-02-23T17:47:28.846Z,7.64
2019-02-23T17:57:28.403Z,7.53
2019-02-23T18:07:28.541Z,7.63
2019-02-23T18:17:28.415Z,7.52
2019-02-23T18:27:28.598Z,7.35
2019-02-23T18:37:28.426Z,6.99
2019-02-23T18:47:28.405Z,6.74
2019-02-23T18:57:28.399Z,6.88
2019-02-23T19:07:28.360Z,6.90
2019-02-23T19:17:28.398Z,6.81
2019-02-23T19:27:28.408Z,6.45
2019-02-23T19:37:28.535Z,6.10
2019-02-23T19:47:28.379Z,5.64
2019-02-23T19:57:28.389Z,5.28
2019-02-23T20:07:28.426Z,5.48
2019-02-23T20:17:28.375Z,5.42
2019-02-23T20:27:29.073Z,5.23
2019-02-23T20:37:28.424Z,5.53
2019-02-23T20:47:29.080Z,5.75
2019-02-23T20:57:29.236Z,5.81
2019-02-23T21:07:29.246Z,5.67
2019-02-23T21:17:28.378Z,5.16
2019-02-23T21:27:28.320Z,4.51
2019-02-23T21:37:28.420Z,4.51
2019-02-23T21:47:29.745Z,4.56
2019-02-23T21:57:31.541Z,4.33
2019-02-23T22:07:29.374Z,4.02
2019-02-23T22:17:28.414Z,3.73
2019-02-23T22:27:31.340Z,3.43
2019-02-23T22:37:28.630Z,3.22
2019-02-23T22:47:28.385Z,2.70
2019-02-23T22:57:28.377Z,2.66
2019-02-23T23:07:28.456Z,2.30
2019-02-23T23:17:28.339Z,2.15
2019-02-23T23:27:28.316Z,1.86
2019-02-23T23:37:28.424Z,1.48
2019-02-23T23:47:28.427Z,1.43
2019-02-23T23:57:28.310Z,1.20
